Time;durP1;ratioP1;P1;durP2;ratioP2;P2;SDS_P1;SDS_P2;PMS_P1;PMS_P2;Temp;Humidity;BMP_temperature;BMP_pressure;BME280_temperature;BME280_humidity;BME280_pressure;Samples;Min_cycle;Max_cycle;Signal;HPM_P1;HPM_P2
2022/08/06 00:02:28;;;;;;;10.65;8.50;;;;;;;20.39;80.77;100191.00;1822818;77;21849;-76
2022/08/06 00:04:58;;;;;;;10.20;8.45;;;;;;;20.40;80.61;100192.66;1825453;77;21480;-77
2022/08/06 00:07:26;;;;;;;8.85;7.95;;;;;;;20.39;80.58;100188.31;1805014;77;21097;-77
2022/08/06 00:09:53;;;;;;;9.20;8.30;;;;;;;20.39;80.60;100191.83;1825166;77;20981;-77
2022/08/06 00:12:20;;;;;;;12.68;8.03;;;;;;;20.40;80.50;100189.97;1814960;76;22215;-77
2022/08/06 00:14:47;;;;;;;8.18;7.47;;;;;;;20.40;80.49;100192.66;1809378;78;21802;-77
2022/08/06 00:17:14;;;;;;;9.38;8.35;;;;;;;20.39;80.43;100189.66;1801982;78;21007;-77
2022/08/06 00:19:42;;;;;;;8.83;7.90;;;;;;;20.38;80.41;100192.02;1806486;77;21102;-76
2022/08/06 00:22:08;;;;;;;8.43;7.62;;;;;;;20.38;80.37;100192.85;1801613;77;21060;-77
2022/08/06 00:24:36;;;;;;;9.33;7.95;;;;;;;20.36;80.39;100185.48;1793038;78;21002;-77
2022/08/06 00:27:03;;;;;;;10.15;8.08;;;;;;;20.35;80.46;100183.82;1791197;79;22425;-76
2022/08/06 00:29:31;;;;;;;11.08;7.90;;;;;;;20.35;80.39;100185.16;1763823;79;21097;-76
2022/08/06 00:31:57;;;;;;;9.03;7.90;;;;;;;20.36;80.35;100184.66;1790960;79;21023;-76
2022/08/06 00:34:24;;;;;;;9.28;8.03;;;;;;;20.36;80.29;100184.66;1799289;79;21062;-78
2022/08/06 00:36:51;;;;;;;9.15;8.15;;;;;;;20.36;80.22;100182.80;1791743;77;21093;-77
2022/08/06 00:39:18;;;;;;;10.53;8.10;;;;;;;20.36;80.18;100182.80;1769286;79;21978;-77
2022/08/06 00:41:45;;;;;;;9.00;8.10;;;;;;;20.33;80.13;100180.50;1790096;79;21969;-77
2022/08/06 00:44:13;;;;;;;11.10;8.18;;;;;;;20.32;80.13;100184.72;1792757;79;21038;-76
2022/08/06 00:46:40;;;;;;;8.98;8.10;;;;;;;20.29;80.11;100191.30;1777269;79;21042;-76
2022/08/06 00:49:08;;;;;;;8.88;7.97;;;;;;;20.27;80.00;100192.02;1793944;79;21523;-77
2022/08/06 00:51:36;;;;;;;8.83;7.97;;;;;;;20.25;80.06;100185.47;1780167;78;23171;-77
2022/08/06 00:54:02;;;;;;;9.05;7.72;;;;;;;20.22;80.13;100184.52;1774495;79;21058;-77
2022/08/06 00:56:29;;;;;;;11.22;8.40;;;;;;;20.20;80.33;100187.07;1779846;78;21061;-77
2022/08/06 00:58:56;;;;;;;8.35;7.62;;;;;;;20.21;80.46;100191.41;1836665;76;21121;-76
2022/08/06 01:01:23;;;;;;;9.50;7.83;;;;;;;20.20;80.46;100191.92;1766425;79;21000;-77
2022/08/06 01:03:50;;;;;;;10.32;7.92;;;;;;;20.19;80.41;100190.78;1794848;79;22432;-77
2022/08/06 01:06:17;;;;;;;10.03;8.38;;;;;;;20.18;80.58;100191.29;1789449;79;21070;-77
2022/08/06 01:08:45;;;;;;;9.28;8.28;;;;;;;20.19;80.70;100193.45;1790278;79;21039;-76
2022/08/06 01:11:16;;;;;;;9.15;8.25;;;;;;;20.20;80.73;100195.95;1784042;78;21125;-76
2022/08/06 01:13:46;;;;;;;10.13;8.18;;;;;;;20.21;80.75;100192.75;1782348;78;21086;-77
2022/08/06 01:16:53;;;;;;;9.13;8.23;;;;;;;20.22;80.77;100194.41;1781185;78;21832;-76
2022/08/06 01:19:28;;;;;;;9.33;8.43;;;;;;;20.23;80.75;100191.54;1824723;76;21515;-77
2022/08/06 01:22:26;;;;;;;9.58;8.55;;;;;;;20.24;80.75;100198.56;1825234;76;21026;-77
2022/08/06 01:25:05;;;;;;;9.38;8.43;;;;;;;20.23;80.87;100198.24;1822335;77;21041;-76
2022/08/06 01:27:45;;;;;;;9.50;8.48;;;;;;;20.19;80.92;100194.29;1822053;76;21310;-77
2022/08/06 01:30:18;;;;;;;10.00;8.98;;;;;;;20.16;80.98;100195.98;1803906;77;22722;-76
2022/08/06 01:33:00;;;;;;;9.73;8.83;;;;;;;20.14;81.00;100193.18;1800965;78;21045;-76
2022/08/06 01:35:31;;;;;;;9.73;8.43;;;;;;;20.15;81.16;100190.30;1783604;77;21133;-77
2022/08/06 01:38:12;;;;;;;9.75;8.75;;;;;;;20.15;81.18;100191.64;1805328;78;21085;-76
2022/08/06 01:40:39;;;;;;;9.90;8.98;;;;;;;20.14;81.20;100191.84;1802702;78;21042;-76
2022/08/06 01:43:09;;;;;;;10.72;9.15;;;;;;;20.16;81.11;100193.81;1805361;78;21803;-76
2022/08/06 01:45:36;;;;;;;11.68;9.00;;;;;;;20.17;81.04;100187.42;1802112;78;21057;-76
2022/08/06 01:48:05;;;;;;;9.50;8.60;;;;;;;20.19;80.97;100190.27;1808069;77;21093;-76
2022/08/06 01:50:36;;;;;;;10.00;9.10;;;;;;;20.20;80.89;100185.73;1803171;77;21592;-76
2022/08/06 01:53:03;;;;;;;10.03;9.03;;;;;;;20.21;80.85;100192.24;1772739;78;21164;-76
2022/08/06 01:55:33;;;;;;;10.13;9.15;;;;;;;20.18;80.76;100195.31;1803350;78;22270;-76
2022/08/06 01:58:01;;;;;;;9.43;8.45;;;;;;;20.16;80.64;100197.33;1803403;78;21010;-78
2022/08/06 02:00:28;;;;;;;10.30;8.88;;;;;;;20.13;80.44;100202.25;1801968;78;21388;-77
2022/08/06 02:02:55;;;;;;;9.10;8.20;;;;;;;20.10;80.31;100210.67;1765579;80;21086;-76
2022/08/06 02:05:22;;;;;;;9.20;8.40;;;;;;;20.07;80.09;100208.34;1775960;79;21476;-75
2022/08/06 02:07:51;;;;;;;9.48;7.75;;;;;;;20.01;80.02;100208.61;1824579;76;21552;-75
2022/08/06 02:10:22;;;;;;;10.05;7.72;;;;;;;20.01;80.04;100205.92;1825679;77;21048;-77
2022/08/06 02:12:48;;;;;;;8.70;7.83;;;;;;;19.98;80.02;100204.97;1801546;77;21080;-75
2022/08/06 02:15:22;;;;;;;8.75;7.87;;;;;;;19.94;79.91;100199.64;1795925;78;21055;-75
2022/08/06 02:17:51;;;;;;;8.88;7.97;;;;;;;19.90;79.88;100205.06;1776596;78;21483;-74
2022/08/06 02:20:22;;;;;;;10.35;8.25;;;;;;;19.85;79.99;100206.11;1761931;78;21989;-77
2022/08/06 02:22:48;;;;;;;10.78;8.68;;;;;;;19.83;80.04;100208.98;1778491;78;21016;-76
2022/08/06 02:25:15;;;;;;;9.50;8.53;;;;;;;19.84;80.12;100213.83;1811608;78;21108;-75
2022/08/06 02:27:46;;;;;;;9.58;7.97;;;;;;;19.83;80.20;100213.01;1813517;78;21113;-75
2022/08/06 02:30:13;;;;;;;10.95;7.90;;;;;;;19.83;80.27;100208.98;1801937;78;21428;-75
2022/08/06 02:32:41;;;;;;;12.37;7.85;;;;;;;19.81;80.26;100213.70;1771453;78;22675;-75
2022/08/06 02:35:08;;;;;;;8.85;7.75;;;;;;;19.78;80.21;100214.05;1796247;79;21117;-75
2022/08/06 02:37:42;;;;;;;9.75;7.97;;;;;;;19.76;80.10;100215.27;1780793;79;21065;-75
2022/08/06 02:40:32;;;;;;;9.60;7.87;;;;;;;19.74;80.14;100208.75;1792411;79;22317;-74
2022/08/06 02:43:23;;;;;;;11.68;8.28;;;;;;;19.71;80.18;100211.30;1803331;78;21591;-76
2022/08/06 02:46:01;;;;;;;10.03;7.92;;;;;;;19.68;80.36;100212.16;1803761;78;22549;-75
2022/08/06 02:48:42;;;;;;;8.53;7.65;;;;;;;19.66;80.42;100208.84;1764110;80;21057;-76
2022/08/06 02:51:11;;;;;;;9.23;8.00;;;;;;;19.62;80.39;100205.72;1789005;79;21000;-76
2022/08/06 02:53:46;;;;;;;9.20;8.33;;;;;;;19.60;80.41;100210.43;1787238;79;21070;-76
2022/08/06 02:56:13;;;;;;;10.68;7.53;;;;;;;19.59;80.35;100215.95;1742634;80;21064;-75
2022/08/06 02:58:44;;;;;;;8.53;7.60;;;;;;;19.58;80.34;100214.28;1784787;77;21881;-75
2022/08/06 03:01:16;;;;;;;11.97;8.10;;;;;;;19.56;80.27;100213.64;1801786;78;21616;-74
2022/08/06 03:03:44;;;;;;;12.18;7.80;;;;;;;19.56;80.26;100207.78;1804330;78;20971;-75
2022/08/06 03:06:12;;;;;;;12.93;8.10;;;;;;;19.56;80.20;100220.34;1737832;80;21033;-75
2022/08/06 03:08:39;;;;;;;9.00;7.42;;;;;;;19.54;80.25;100219.16;1794521;79;21114;-76
2022/08/06 03:11:06;;;;;;;8.95;7.20;;;;;;;19.55;80.31;100223.50;1793510;77;22625;-75
2022/08/06 03:13:32;;;;;;;9.28;7.47;;;;;;;19.54;80.40;100216.48;1788139;79;21026;-75
2022/08/06 03:15:59;;;;;;;10.38;7.40;;;;;;;19.51;80.50;100220.88;1788482;79;21035;-75
2022/08/06 03:18:27;;;;;;;10.20;7.50;;;;;;;19.51;80.54;100223.55;1790684;79;21011;-75
2022/08/06 03:20:55;;;;;;;10.03;7.60;;;;;;;19.52;80.55;100227.06;1791862;77;21540;-76
2022/08/06 03:23:21;;;;;;;10.82;7.65;;;;;;;19.52;80.61;100221.20;1790894;79;22551;-76
2022/08/06 03:25:48;;;;;;;8.23;7.50;;;;;;;19.54;80.66;100225.03;1796811;77;21046;-74
2022/08/06 03:28:14;;;;;;;8.60;7.80;;;;;;;19.55;80.73;100226.69;1718884;79;21042;-78
2022/08/06 03:30:41;;;;;;;11.03;7.47;;;;;;;19.58;80.81;100226.34;1767947;78;21540;-76
2022/08/06 03:33:15;;;;;;;8.83;7.90;;;;;;;19.58;80.95;100228.52;1778810;78;21058;-75
2022/08/06 03:35:42;;;;;;;10.00;7.97;;;;;;;19.59;81.02;100223.50;1780930;78;22664;-75
2022/08/06 03:38:09;;;;;;;11.08;8.20;;;;;;;19.61;81.12;100228.16;1779356;78;21043;-75
2022/08/06 03:40:38;;;;;;;8.73;7.92;;;;;;;19.63;81.21;100232.83;1781654;79;21110;-75
2022/08/06 03:43:05;;;;;;;11.38;7.75;;;;;;;19.65;81.38;100228.62;1779963;78;21055;-76
2022/08/06 03:45:35;;;;;;;11.57;8.10;;;;;;;19.69;81.48;100234.78;1782162;79;21126;-75
2022/08/06 03:48:02;;;;;;;11.30;8.85;;;;;;;19.72;81.54;100236.25;1785557;79;22090;-74
2022/08/06 03:50:31;;;;;;;9.73;8.73;;;;;;;19.74;81.68;100238.23;1753478;79;21490;-75
2022/08/06 03:53:02;;;;;;;9.25;8.13;;;;;;;19.79;81.92;100231.83;1779875;79;21109;-73
2022/08/06 03:55:32;;;;;;;10.10;9.15;;;;;;;19.84;82.02;100236.61;1781783;78;22031;-75
2022/08/06 03:58:03;;;;;;;11.33;9.73;;;;;;;19.88;82.08;100246.80;1767429;79;21087;-74
2022/08/06 04:00:35;;;;;;;10.03;9.00;;;;;;;19.93;82.21;100238.19;1780036;78;21802;-75
2022/08/06 04:03:03;;;;;;;10.40;9.33;;;;;;;19.97;82.36;100240.30;1778822;79;21007;-75
2022/08/06 04:05:30;;;;;;;10.50;9.55;;;;;;;20.04;82.46;100251.12;1761227;79;21051;-74
2022/08/06 04:08:03;;;;;;;15.08;10.20;;;;;;;20.08;82.55;100247.58;1781323;79;21082;-75
2022/08/06 04:10:33;;;;;;;12.70;10.28;;;;;;;20.11;82.58;100244.51;1750486;78;21117;-74
2022/08/06 04:13:00;;;;;;;12.05;9.95;;;;;;;20.12;82.58;100236.27;1758656;79;21911;-75
2022/08/06 04:15:27;;;;;;;10.85;9.85;;;;;;;20.12;82.55;100236.27;1756316;79;21137;-75
2022/08/06 04:17:53;;;;;;;11.78;10.45;;;;;;;20.17;82.53;100240.58;1824983;76;21635;-74
2022/08/06 04:20:21;;;;;;;12.73;10.13;;;;;;;20.21;82.51;100236.49;1825469;76;20978;-75
2022/08/06 04:22:48;;;;;;;11.25;10.10;;;;;;;20.26;82.43;100242.11;1799942;77;20994;-75
2022/08/06 04:25:15;;;;;;;11.75;10.65;;;;;;;20.32;82.41;100246.41;1799027;78;21919;-75
2022/08/06 04:27:41;;;;;;;11.68;10.63;;;;;;;20.35;82.40;100246.03;1804804;78;21007;-74
2022/08/06 04:30:10;;;;;;;11.85;10.80;;;;;;;20.38;82.36;100243.82;1806459;78;21010;-75
2022/08/06 04:32:38;;;;;;;11.28;10.18;;;;;;;20.41;82.25;100247.97;1808706;78;22383;-76
2022/08/06 04:35:07;;;;;;;13.05;10.50;;;;;;;20.43;82.25;100241.42;1787166;78;21093;-74
2022/08/06 04:37:35;;;;;;;11.80;10.30;;;;;;;20.47;82.20;100252.11;1806044;78;22566;-74
2022/08/06 04:40:01;;;;;;;11.75;10.55;;;;;;;20.50;82.06;100254.41;1809305;77;21225;-75
2022/08/06 04:42:28;;;;;;;11.73;10.50;;;;;;;20.53;81.91;100251.34;1804287;78;21026;-74
2022/08/06 04:44:56;;;;;;;11.45;10.25;;;;;;;20.57;81.79;100248.61;1809909;78;21073;-77
2022/08/06 04:47:22;;;;;;;13.45;10.80;;;;;;;20.58;81.55;100248.93;1805436;78;21018;-74
2022/08/06 04:49:49;;;;;;;11.48;10.25;;;;;;;20.65;81.45;100253.52;1805265;78;21877;-76
2022/08/06 04:52:24;;;;;;;11.45;10.10;;;;;;;20.70;81.29;100252.45;1783117;78;21509;-76
2022/08/06 04:54:51;;;;;;;11.80;10.35;;;;;;;20.75;81.09;100256.72;1805396;77;21128;-75
2022/08/06 04:57:18;;;;;;;12.10;10.93;;;;;;;20.81;80.74;100262.68;1805204;78;21045;-79
2022/08/06 04:59:44;;;;;;;13.43;10.48;;;;;;;20.83;80.58;100260.63;1808997;78;21119;-79
2022/08/06 05:02:11;;;;;;;14.70;13.35;;;;;;;20.88;80.47;100247.48;1806097;78;21783;-75
2022/08/06 05:04:38;;;;;;;42.40;37.85;;;;;;;20.92;80.29;100247.40;1806890;78;21057;-77
2022/08/06 05:07:27;;;;;;;17.12;15.13;;;;;;;20.96;80.15;100247.36;1810234;78;21034;-78
2022/08/06 05:09:54;;;;;;;14.07;12.73;;;;;;;21.02;79.96;100255.96;1806678;78;20994;-77
2022/08/06 05:12:45;;;;;;;12.53;11.43;;;;;;;21.06;79.66;100247.86;1807621;77;21444;-74
2022/08/06 05:15:34;;;;;;;12.28;11.18;;;;;;;21.06;79.07;100246.52;1802262;77;21912;-75
2022/08/06 05:18:06;;;;;;;12.82;10.95;;;;;;;21.08;79.03;100247.15;1804543;78;21007;-73
2022/08/06 05:20:37;;;;;;;16.40;11.53;;;;;;;21.15;79.03;100256.10;1804141;78;21547;-76
2022/08/06 05:23:20;;;;;;;12.35;11.08;;;;;;;21.22;78.90;100253.97;1803705;78;21079;-72
2022/08/06 05:25:50;;;;;;;12.70;11.40;;;;;;;21.26;78.70;100259.29;1812880;76;21049;-76
2022/08/06 05:28:16;;;;;;;12.33;10.98;;;;;;;21.34;78.69;100265.39;1821599;76;21771;-74
2022/08/06 05:30:45;;;;;;;12.45;11.20;;;;;;;21.40;78.42;100253.84;1826521;77;22396;-76
2022/08/06 05:33:14;;;;;;;13.15;11.53;;;;;;;21.47;78.19;100257.10;1828765;76;21422;-75
2022/08/06 05:35:40;;;;;;;12.43;11.15;;;;;;;21.51;78.10;100258.36;1824524;77;21067;-76
2022/08/06 05:38:07;;;;;;;11.78;10.63;;;;;;;21.56;77.87;100263.48;1836647;77;21050;-75
2022/08/06 05:40:34;;;;;;;12.68;11.38;;;;;;;21.63;77.75;100262.19;1826989;76;21852;-75
2022/08/06 05:43:01;;;;;;;12.43;11.33;;;;;;;21.68;77.58;100267.27;1825527;76;21358;-75
2022/08/06 05:45:28;;;;;;;12.33;11.15;;;;;;;21.73;77.01;100261.33;1831065;77;20993;-76
2022/08/06 05:47:54;;;;;;;13.00;11.43;;;;;;;21.75;76.56;100255.75;1845534;76;20911;-76
2022/08/06 05:50:23;;;;;;;12.88;11.57;;;;;;;21.80;76.67;100258.14;1816462;76;21420;-76
2022/08/06 05:53:09;;;;;;;13.03;11.80;;;;;;;21.89;76.75;100257.47;1816079;79;21862;-75
2022/08/06 05:55:51;;;;;;;11.53;10.53;;;;;;;21.97;76.58;100251.94;1797853;77;21443;-76
2022/08/06 05:58:31;;;;;;;12.05;10.93;;;;;;;22.04;76.06;100249.30;1818777;76;21020;-77
2022/08/06 06:00:59;;;;;;;11.18;10.18;;;;;;;;;;1820233;77;21460;-75
2022/08/06 06:03:26;;;;;;;11.60;10.50;;;;;;;22.21;75.80;100246.10;1848041;76;21029;-76
2022/08/06 06:05:58;;;;;;;11.00;9.95;;;;;;;22.32;75.34;100247.90;1845021;76;21868;-76
2022/08/06 06:08:25;;;;;;;11.45;10.25;;;;;;;22.41;74.65;100253.42;1819721;77;21067;-76
2022/08/06 06:10:52;;;;;;;11.85;10.65;;;;;;;22.48;74.27;100252.39;1849490;77;20935;-76
2022/08/06 06:13:22;;;;;;;11.95;10.70;;;;;;;22.56;73.68;100246.00;1841189;77;21022;-76
2022/08/06 06:16:00;;;;;;;11.08;10.10;;;;;;;22.62;73.47;100253.27;1811117;77;21493;-76
2022/08/06 06:19:02;;;;;;;10.65;9.75;;;;;;;22.70;73.47;100249.56;1815011;77;21765;-76
2022/08/06 06:21:52;;;;;;;10.90;9.90;;;;;;;22.75;72.44;100251.12;1849195;77;20983;-76
2022/08/06 06:24:32;;;;;;;12.70;9.60;;;;;;;22.79;71.78;100246.48;1849162;77;20967;-77
2022/08/06 06:27:26;;;;;;;11.08;9.25;;;;;;;22.81;71.11;100249.80;1816234;77;20998;-75
2022/08/06 06:30:06;;;;;;;10.95;9.63;;;;;;;22.85;70.72;100248.37;1828188;77;21412;-76
2022/08/06 06:32:44;;;;;;;10.05;9.00;;;;;;;22.90;70.48;100242.91;1835939;77;22454;-76
2022/08/06 06:35:29;;;;;;;10.48;9.53;;;;;;;22.93;69.85;100246.00;1826265;77;20967;-75
2022/08/06 06:38:15;;;;;;;11.08;9.83;;;;;;;22.94;69.79;100251.70;1836650;76;21376;-75
2022/08/06 06:41:06;;;;;;;10.35;9.25;;;;;;;23.03;70.21;100246.42;1816555;76;21049;-76
2022/08/06 06:43:53;;;;;;;10.70;9.70;;;;;;;23.18;70.09;100243.55;1816632;79;21035;-76
2022/08/06 06:46:53;;;;;;;10.35;9.10;;;;;;;23.32;70.13;100242.50;1822511;77;21779;-77
2022/08/06 06:49:49;;;;;;;10.40;9.50;;;;;;;23.49;69.83;100250.99;1832351;77;20977;-76
2022/08/06 06:52:33;;;;;;;10.08;9.10;;;;;;;23.59;68.99;100257.34;1825401;77;21064;-77
2022/08/06 06:55:13;;;;;;;9.18;8.03;;;;;;;23.67;69.11;100246.34;1848586;77;21013;-76
2022/08/06 06:57:44;;;;;;;9.95;8.68;;;;;;;23.79;68.61;100247.34;1832870;76;20994;-75
2022/08/06 07:00:12;;;;;;;9.93;9.03;;;;;;;23.91;68.11;100240.77;1818181;77;21788;-77
2022/08/06 07:02:42;;;;;;;9.70;8.70;;;;;;;24.02;67.99;100254.13;1816247;79;21327;-76
2022/08/06 07:05:09;;;;;;;9.65;8.75;;;;;;;24.13;68.04;100250.78;1840806;77;20950;-77
2022/08/06 07:07:40;;;;;;;10.23;8.63;;;;;;;24.25;67.43;100243.15;1849646;77;20971;-77
2022/08/06 07:10:11;;;;;;;9.18;8.28;;;;;;;24.36;66.85;100243.55;1830138;77;21077;-77
2022/08/06 07:12:38;;;;;;;8.80;8.03;;;;;;;24.42;65.64;100239.48;1816707;77;21862;-77
2022/08/06 07:15:06;;;;;;;12.60;8.13;;;;;;;24.45;64.74;100239.56;1819495;77;21408;-76
2022/08/06 07:17:35;;;;;;;9.00;8.10;;;;;;;24.44;64.18;100237.38;1828081;77;20994;-76
2022/08/06 07:20:07;;;;;;;9.95;8.28;;;;;;;24.47;64.68;100238.81;1801737;77;20966;-77
2022/08/06 07:22:35;;;;;;;9.10;8.20;;;;;;;24.56;64.97;100241.57;1816631;77;20942;-76
2022/08/06 07:25:05;;;;;;;8.95;8.20;;;;;;;24.66;64.52;100239.75;1821580;77;21804;-76
2022/08/06 07:27:42;;;;;;;9.35;8.45;;;;;;;24.73;64.44;100248.13;1835707;77;21120;-75
2022/08/06 07:30:11;;;;;;;9.28;8.38;;;;;;;24.87;65.07;100243.45;1813332;76;20982;-76
2022/08/06 07:32:38;;;;;;;9.10;8.28;;;;;;;24.98;64.34;100245.97;1789524;79;21399;-76
2022/08/06 07:35:07;;;;;;;9.08;8.18;;;;;;;25.01;64.12;100244.20;1822164;77;20989;-75
2022/08/06 07:37:35;;;;;;;9.60;8.70;;;;;;;25.07;64.17;100238.75;1814218;79;21803;-77
2022/08/06 07:40:02;;;;;;;9.38;8.48;;;;;;;25.15;63.71;100246.30;1816323;76;20994;-76
2022/08/06 07:42:29;;;;;;;9.83;8.85;;;;;;;25.22;63.50;100241.67;1816499;77;21025;-76
2022/08/06 07:45:00;;;;;;;9.18;8.10;;;;;;;25.25;63.00;100244.75;1816902;77;20998;-75
2022/08/06 07:47:30;;;;;;;9.13;8.43;;;;;;;25.27;62.67;100247.23;1790124;77;21029;-77
2022/08/06 07:49:58;;;;;;;12.20;8.20;;;;;;;25.28;62.73;100247.00;1836238;77;22008;-76
2022/08/06 07:52:25;;;;;;;10.45;8.05;;;;;;;25.34;62.82;100253.41;1816132;79;20935;-77
2022/08/06 07:54:55;;;;;;;8.30;7.47;;;;;;;25.39;62.72;100249.53;1818288;77;20938;-77
2022/08/06 07:57:23;;;;;;;8.23;7.53;;;;;;;25.46;63.01;100247.58;1849551;77;20947;-76
2022/08/06 07:59:49;;;;;;;8.85;7.95;;;;;;;25.57;62.78;100249.55;1829722;77;21500;-77
2022/08/06 08:02:16;;;;;;;9.05;7.97;;;;;;;25.63;62.30;100239.20;1824202;77;21771;-76
2022/08/06 08:07:28;;;;;;;8.65;7.83;;;;;;;25.86;62.01;100243.97;1816808;77;20954;-77
2022/08/06 08:09:54;;;;;;;8.50;7.58;;;;;;;25.91;61.40;100241.44;1816600;77;20926;-77
2022/08/06 08:12:21;;;;;;;8.48;7.70;;;;;;;26.00;61.50;100240.61;1843497;77;20939;-77
2022/08/06 08:14:48;;;;;;;9.38;8.48;;;;;;;26.11;61.44;100239.02;1849122;77;21873;-77
2022/08/06 08:17:15;;;;;;;9.73;7.72;;;;;;;26.22;61.63;100239.08;1816253;77;20935;-76
2022/08/06 08:19:41;;;;;;;8.33;7.62;;;;;;;26.35;61.30;100234.58;1817173;76;21089;-76
2022/08/06 08:22:16;;;;;;;11.20;8.30;;;;;;;26.44;60.63;100236.77;1816283;79;21026;-76
2022/08/06 08:24:46;;;;;;;8.73;7.90;;;;;;;26.50;60.20;100235.01;1817044;76;21045;-75
2022/08/06 08:27:12;;;;;;;8.60;7.80;;;;;;;26.53;60.77;100226.41;1816308;77;21869;-77
2022/08/06 08:29:40;;;;;;;8.55;7.47;;;;;;;26.62;60.36;100223.67;1817392;76;20983;-76
2022/08/06 08:32:08;;;;;;;8.38;7.58;;;;;;;26.72;59.66;100228.01;1756886;79;21053;-76
2022/08/06 08:34:35;;;;;;;9.63;7.50;;;;;;;26.82;59.54;100230.98;1791385;77;21425;-77
2022/08/06 08:37:03;;;;;;;8.23;7.42;;;;;;;26.93;59.22;100236.69;1788369;79;21428;-75
2022/08/06 08:39:30;;;;;;;7.85;7.05;;;;;;;27.05;58.94;100234.85;1816592;76;21834;-76
2022/08/06 08:42:23;;;;;;;8.58;7.35;;;;;;;27.10;57.92;100235.79;1824198;76;21090;-74
2022/08/06 08:44:49;;;;;;;10.10;6.97;;;;;;;27.16;57.61;100231.86;1772940;78;20996;-77
2022/08/06 08:47:16;;;;;;;7.67;6.95;;;;;;;27.24;57.90;100242.37;1768659;78;21294;-78
2022/08/06 08:49:51;;;;;;;8.35;6.67;;;;;;;27.31;57.60;100240.34;1742079;80;20940;-77
2022/08/06 08:52:21;;;;;;;8.00;6.62;;;;;;;27.37;56.76;100232.11;1762387;80;21839;-77
2022/08/06 08:54:52;;;;;;;7.87;6.30;;;;;;;27.37;56.29;100234.81;1763414;78;20999;-77
2022/08/06 08:57:18;;;;;;;7.20;6.45;;;;;;;27.37;56.57;100232.64;1789923;80;20979;-77
2022/08/06 08:59:45;;;;;;;8.20;6.78;;;;;;;27.45;56.37;100230.11;1781830;78;20984;-78
2022/08/06 09:02:13;;;;;;;9.70;6.60;;;;;;;27.55;56.05;100229.81;1763837;80;20944;-77
2022/08/06 09:04:40;;;;;;;8.25;6.65;;;;;;;27.64;56.08;100237.89;1783133;80;21893;-77
2022/08/06 09:07:09;;;;;;;7.45;6.70;;;;;;;27.78;56.29;100234.95;1762670;80;21467;-78
2022/08/06 09:09:38;;;;;;;8.00;7.15;;;;;;;27.91;56.25;100231.45;1734307;81;21055;-77
2022/08/06 09:12:07;;;;;;;7.40;6.70;;;;;;;28.00;55.42;100229.20;1748748;80;21008;-78
2022/08/06 09:14:37;;;;;;;7.92;6.90;;;;;;;28.09;56.28;100229.12;1793159;80;20945;-78
2022/08/06 09:17:06;;;;;;;9.15;7.12;;;;;;;28.22;55.88;100237.52;1777293;80;21845;-78
2022/08/06 09:19:34;;;;;;;7.70;7.00;;;;;;;28.31;55.03;100234.75;1756801;78;21063;-78
2022/08/06 09:22:02;;;;;;;7.60;6.78;;;;;;;28.33;54.03;100232.60;1755125;79;20933;-77
2022/08/06 09:24:30;;;;;;;7.08;6.37;;;;;;;28.36;54.89;100225.86;1755030;80;21004;-78
2022/08/06 09:27:12;;;;;;;6.78;6.17;;;;;;;28.50;55.30;100228.59;1805700;77;21590;-77
2022/08/06 09:29:56;;;;;;;8.93;6.78;;;;;;;28.61;54.39;100224.16;1811435;77;21934;-77
2022/08/06 09:32:41;;;;;;;7.05;6.45;;;;;;;28.71;53.44;100225.70;1785895;79;20824;-78
2022/08/06 09:35:26;;;;;;;6.83;6.10;;;;;;;28.76;53.53;100218.48;1786532;79;21436;-77
2022/08/06 09:38:04;;;;;;;7.37;5.65;;;;;;;28.80;52.77;100217.44;1794394;79;21074;-78
2022/08/06 09:40:32;;;;;;;6.12;5.60;;;;;;;28.73;52.73;100212.69;1798294;79;20987;-78
2022/08/06 09:42:58;;;;;;;6.47;5.75;;;;;;;28.80;53.32;100210.65;1772825;81;21775;-76
2022/08/06 09:45:25;;;;;;;6.20;5.67;;;;;;;28.91;53.24;100207.06;1782721;78;21524;-78
2022/08/06 09:48:05;;;;;;;9.30;4.97;;;;;;;29.05;52.54;100213.02;1796095;79;20976;-77
2022/08/06 09:50:44;;;;;;;5.62;5.10;;;;;;;29.19;51.50;100203.97;1793551;78;20953;-77
2022/08/06 09:53:12;;;;;;;6.05;5.08;;;;;;;29.27;52.09;100209.82;1785496;79;20949;-77
2022/08/06 09:55:39;;;;;;;6.35;5.10;;;;;;;29.48;51.29;100208.25;1773265;79;21933;-77
2022/08/06 09:58:06;;;;;;;5.35;4.85;;;;;;;29.52;50.36;100210.75;1798808;79;20913;-77
2022/08/06 10:00:34;;;;;;;5.80;5.20;;;;;;;29.59;50.37;100210.05;1804402;77;21402;-77
2022/08/06 10:03:05;;;;;;;5.50;5.00;;;;;;;29.69;49.48;100203.09;1809476;77;21461;-77
2022/08/06 10:05:31;;;;;;;14.38;5.42;;;;;;;29.95;51.20;100206.44;1753135;80;20955;-78
2022/08/06 10:08:16;;;;;;;7.95;4.85;;;;;;;29.95;51.20;100206.44;1808088;78;21576;-78
2022/08/06 10:10:47;;;;;;;5.75;4.80;;;;;;;30.08;48.77;100208.80;1786798;79;21454;-78
2022/08/06 10:13:26;;;;;;;5.25;4.72;;;;;;;30.27;49.66;100213.92;1786407;79;20967;-76
2022/08/06 10:15:54;;;;;;;7.30;4.60;;;;;;;30.48;47.82;100216.59;1745177;81;20972;-78
2022/08/06 10:18:41;;;;;;;4.85;4.45;;;;;;;30.52;46.49;100216.93;1772739;78;21110;-78
2022/08/06 10:21:18;;;;;;;5.47;4.70;;;;;;;30.45;47.48;100221.75;1772866;79;22413;-77
2022/08/06 10:23:47;;;;;;;5.10;4.62;;;;;;;30.47;47.40;100219.59;1815803;77;21076;-77
2022/08/06 10:26:26;;;;;;;6.20;4.67;;;;;;;30.59;46.46;100213.44;1816047;77;21057;-77
2022/08/06 10:28:53;;;;;;;5.00;4.50;;;;;;;30.76;46.77;100214.72;1800030;78;20986;-77
2022/08/06 10:31:19;;;;;;;6.03;4.92;;;;;;;30.85;45.99;100217.27;1771837;80;21001;-77
2022/08/06 10:34:02;;;;;;;8.55;4.70;;;;;;;30.95;46.34;100223.34;1756030;79;21795;-77
2022/08/06 10:36:36;;;;;;;5.42;4.78;;;;;;;31.13;46.21;100220.22;1805124;78;20994;-77
2022/08/06 10:39:03;;;;;;;8.20;5.65;;;;;;;31.29;45.11;100218.47;1783545;79;21394;-77
2022/08/06 10:41:34;;;;;;;6.92;5.00;;;;;;;31.36;45.64;100225.05;1809126;79;20994;-77
2022/08/06 10:44:00;;;;;;;6.12;5.53;;;;;;;31.38;45.03;100214.72;1828921;77;21465;-79
2022/08/06 10:46:26;;;;;;;7.50;5.72;;;;;;;31.43;44.90;100222.38;1827696;78;21902;-77
2022/08/06 10:48:53;;;;;;;7.00;5.22;;;;;;;31.34;45.80;100222.59;1840220;77;21563;-77
2022/08/06 10:51:20;;;;;;;9.40;6.15;;;;;;;31.34;45.43;100219.31;1810585;77;21018;-78
2022/08/06 10:53:47;;;;;;;5.75;5.25;;;;;;;31.30;45.48;100220.11;1809193;79;21046;-77
2022/08/06 10:56:16;;;;;;;5.67;5.03;;;;;;;31.29;45.48;100218.47;1811948;78;20994;-78
2022/08/06 10:58:43;;;;;;;4.70;4.30;;;;;;;31.27;45.10;100215.19;1809156;79;21809;-77
2022/08/06 11:01:17;;;;;;;5.17;4.67;;;;;;;31.10;44.52;100213.11;1760420;80;21481;-77
2022/08/06 11:04:17;;;;;;;7.95;5.35;;;;;;;30.98;44.77;100208.67;1778680;79;21348;-77
2022/08/06 11:07:08;;;;;;;6.78;5.55;;;;;;;30.96;45.40;100210.80;1789528;77;20972;-77
2022/08/06 11:10:03;;;;;;;5.72;5.20;;;;;;;31.05;45.74;100201.61;1789587;79;20941;-77
2022/08/06 11:13:07;;;;;;;5.85;5.28;;;;;;;31.30;45.28;100203.20;1789874;77;22281;-77
2022/08/06 11:15:36;;;;;;;6.53;4.90;;;;;;;31.51;44.59;100203.33;1795289;78;20930;-77
2022/08/06 11:18:09;;;;;;;5.53;4.85;;;;;;;31.73;44.76;100201.80;1805700;78;21344;-78
2022/08/06 11:20:42;;;;;;;13.50;12.10;;;;;;;31.95;43.86;100198.40;1790074;77;20961;-78
2022/08/06 11:23:18;;;;;;;5.72;4.75;;;;;;;32.19;45.15;100194.64;1789638;77;21000;-77
2022/08/06 11:25:54;;;;;;;7.75;5.92;;;;;;;32.38;43.61;100199.91;1791466;78;21918;-77
2022/08/06 11:28:36;;;;;;;6.87;4.72;;;;;;;32.53;43.40;100199.69;1741334;80;20915;-77
2022/08/06 11:31:05;;;;;;;5.35;4.70;;;;;;;32.66;42.98;100208.71;1741453;78;20991;-77
2022/08/06 11:33:40;;;;;;;6.33;5.40;;;;;;;32.70;42.63;100200.23;1800576;78;21000;-77
2022/08/06 11:36:25;;;;;;;5.25;4.60;;;;;;;32.78;42.84;100205.16;1795252;79;21068;-76
2022/08/06 11:38:58;;;;;;;10.10;5.00;;;;;;;32.91;43.22;100203.30;1804158;79;21817;-76
2022/08/06 11:41:27;;;;;;;;;;;;;;;33.13;43.62;100193.98;1785876;80;20899;-78
2022/08/06 11:43:59;;;;;;;6.72;5.62;;;;;;;33.39;42.88;100187.92;1783729;78;20144;-78
2022/08/06 11:46:28;;;;;;;;;;;;;;;33.61;42.23;100192.55;1789329;78;21032;-77